This is the latest recevied weather packets stored in our database for station/object K7DC. If no packets are shown the sender has not sent any weather packets the latest 10 day(s).
| Time | Temp. | Humidity | Pressure | Rain* | Wind** | Luminosity | Snow |
|---|---|---|---|---|---|---|---|
| 1778059449 | 10° C | 76% | 1015.1 hPa | 0 mm | - | 0 W/m² | - |
| 1778058540 | 9.44° C | 78% | 1014.7 hPa | 0 mm | - | 0 W/m² | - |
| 1778058238 | 9.44° C | 76% | 1014.7 hPa | 0 mm | - | 0 W/m² | - |
| 1778057934 | 9.44° C | 77% | 1014.8 hPa | 0 mm | - | 0 W/m² | - |
| 1778056720 | 10° C | 73% | 1015.1 hPa | 0 mm | - | 0 W/m² | - |
| 1778056418 | 10.56° C | 72% | 1015 hPa | 0 mm | - | 0 W/m² | - |
| 1778056115 | 10.56° C | 71% | 1015 hPa | 0 mm | - | 0 W/m² | - |
| 1778055812 | 11.11° C | 69% | 1015 hPa | 0 mm | - | 0 W/m² | - |
| 1778055507 | 11.11° C | 70% | 1015.1 hPa | 0 mm | - | 0 W/m² | - |
| 1778055206 | 10.56° C | 72% | 1015.1 hPa | 0 mm | - | 0 W/m² | - |
| 1778054903 | 10.56° C | 72% | 1015.1 hPa | 0 mm | - | 0 W/m² | - |
| 1778054298 | 11.67° C | 66% | 1015 hPa | 0 mm | - | 0 W/m² | - |
| 1778053086 | 12.22° C | 63% | 1015.3 hPa | 0 mm | - | 0 W/m² | - |
| 1778052784 | 12.22° C | 64% | 1015.2 hPa | 0 mm | - | 0 W/m² | - |
| 1778052480 | 12.22° C | 65% | 1015.1 hPa | 0 mm | - | 0 W/m² | - |
| 1778052178 | 12.78° C | 60% | 1015 hPa | 0 mm | - | 0 W/m² | - |
| 1778051875 | 12.78° C | 61% | 1015.1 hPa | 0 mm | - | 0 W/m² | - |
| 1778051574 | 13.33° C | 61% | 1015.1 hPa | 0 mm | - | 0 W/m² | - |
| 1778051270 | 13.33° C | 60% | 1015 hPa | 0 mm | - | 0 W/m² | - |
| 1778050967 | 13.33° C | 61% | 1015.1 hPa | 0 mm | - | 0 W/m² | - |
| 1778050665 | 13.33° C | 60% | 1015 hPa | 0 mm | - | 0 W/m² | - |
| 1778050362 | 13.89° C | 58% | 1015 hPa | 0 mm | - | 0 W/m² | - |
| 1778049452 | 13.89° C | 57% | 1014.8 hPa | 0 mm | - | 0 W/m² | - |
| 1778049149 | 14.44° C | 56% | 1015 hPa | 0 mm | - | 0 W/m² | - |
| 1778048848 | 14.44° C | 55% | 1015 hPa | 0 mm | - | 0 W/m² | - |
* Rain latest hour (hover to see other rain measurements)
** Current wind speed in m/s (hover to see current wind gust speed)